Terminal Aerodrome Forecast
Issued by NWS Portland, OR

Home | Current Version | Previous Version | Text Only | Print | Product List | Glossary On
Versions: 1 2 3 4 5 6 7 8 9 10 11 12 13 14 15 16 17 18 19 20 21 22 23 24 25 26 27 28 29 30
000
FTUS46 KPQR 231720
TAFEUG
TAF
KEUG 231720Z 2318/2418 19008KT P6SM OVC015
     FM232000 22007KT P6SM BKN025
     FM232100 25008KT P6SM FEW025 SCT060
     FM240000 27013KT P6SM SCT060 BKN120
     FM240300 27008KT P6SM SCT030 OVC060
     FM240500 27005KT P6SM SCT015 OVC030=

USA.gov is the U.S. government's official web portal to all federal, state and local government web resources and services.